This is the latest recevied weather packets stored in our database for station/object F4GCF-13. If no packets are shown the sender has not sent any weather packets the latest 1 day(s).
| Time | Temp. | Humidity | Pressure | Rain* | Wind** | Luminosity | Snow |
|---|---|---|---|---|---|---|---|
| 1777985858 | 17.22° C | 68% | 1014 hPa | 0.76 mm | 2.68 m/s, 269° | - | - |
| 1777985557 | 16.67° C | 68% | 1013 hPa | 0.76 mm | 4.02 m/s, 323° | - | - |
| 1777984966 | 16.11° C | 69% | 1013 hPa | 0.76 mm | 3.58 m/s, 252° | - | - |
| 1777984658 | 16.11° C | 71% | 1014 hPa | 0.76 mm | 4.47 m/s, 270° | - | - |
| 1777984358 | 16.11° C | 72% | 1014 hPa | 0.76 mm | 3.58 m/s, 251° | - | - |
| 1777984057 | 16.11° C | 79% | 1014 hPa | 0 mm | 1.79 m/s, 270° | - | - |
| 1777983757 | 16.11° C | 79% | 1014 hPa | 0 mm | 1.79 m/s, 270° | - | - |
| 1777983457 | 16.11° C | 79% | 1014 hPa | 0 mm | 1.79 m/s, 270° | - | - |
| 1777983228 | 16.11° C | 79% | 1014 hPa | 0 mm | 1.79 m/s, 270° | - | - |
| 1777983159 | 16.11° C | 79% | 1014 hPa | 0 mm | 1.79 m/s, 270° | - | - |
| 1777982858 | 16.11° C | 79% | 1014 hPa | 0 mm | 1.79 m/s, 270° | - | - |
| 1777982558 | 16.11° C | 79% | 1014 hPa | 0 mm | 1.79 m/s, 270° | - | - |
| 1777982257 | 16.11° C | 79% | 1014 hPa | 0 mm | 1.79 m/s, 270° | - | - |
| 1777981958 | 15.56° C | 79% | 1014 hPa | 0 mm | 1.34 m/s, 251° | - | - |
| 1777981658 | 15.56° C | 79% | 1014 hPa | 0 mm | 0.89 m/s, 236° | - | - |
| 1777981359 | 15° C | 79% | 1014 hPa | 0 mm | 1.34 m/s, 248° | - | - |
| 1777981057 | 15° C | 78% | 1015 hPa | 0 mm | 1.79 m/s, 248° | - | - |
| 1777980758 | 15° C | 76% | 1015 hPa | 0 mm | 2.24 m/s, 264° | - | - |
| 1777980458 | 15° C | 73% | 1015 hPa | 0 mm | 2.68 m/s, 253° | - | - |
| 1777980158 | 15.56° C | 71% | 1014 hPa | 0 mm | 2.68 m/s, 226° | - | - |
| 1777979857 | 16.67° C | 70% | 1014 hPa | 0 mm | 4.02 m/s, 252° | - | - |
| 1777979558 | 17.22° C | 72% | 1014 hPa | 0 mm | 2.24 m/s, 279° | - | - |
| 1777979557 | 17.22° C | 72% | 1014 hPa | 0 mm | 2.24 m/s, 279° | - | - |
| 1777979257 | 17.22° C | 73% | 1014 hPa | 0 mm | 2.68 m/s, 270° | - | - |
| 1777978957 | 17.22° C | 75% | 1014 hPa | 0 mm | 2.68 m/s, 303° | - | - |
* Rain latest hour (hover to see other rain measurements)
** Current wind speed in m/s (hover to see current wind gust speed)